sensor_id;sensor_type;location;lat;lon;timestamp;pressure;altitude;pressure_sealevel;temperature;humidity
55576;BME280;41437;45.478;9.116;2023-02-11T00:00:48;101893.47;;;-0.61;69.87
55576;BME280;41437;45.478;9.116;2023-02-11T00:03:51;101888.84;;;-0.80;70.24
55576;BME280;41437;45.478;9.116;2023-02-11T00:06:53;101889.41;;;-1.16;70.06
55576;BME280;41437;45.478;9.116;2023-02-11T00:09:54;101897.97;;;-1.32;71.86
55576;BME280;41437;45.478;9.116;2023-02-11T00:12:56;101889.84;;;-1.11;77.05
55576;BME280;41437;45.478;9.116;2023-02-11T00:15:57;101888.47;;;-0.96;75.11
55576;BME280;41437;45.478;9.116;2023-02-11T00:19:01;101886.56;;;-0.74;73.99
55576;BME280;41437;45.478;9.116;2023-02-11T00:22:06;101879.22;;;-0.53;74.10
55576;BME280;41437;45.478;9.116;2023-02-11T00:25:07;101869.41;;;-0.44;73.93
55576;BME280;41437;45.478;9.116;2023-02-11T00:28:10;101856.16;;;-0.47;72.92
55576;BME280;41437;45.478;9.116;2023-02-11T00:31:12;101867.88;;;-0.37;73.67
55576;BME280;41437;45.478;9.116;2023-02-11T00:34:16;101862.59;;;-0.39;72.08
55576;BME280;41437;45.478;9.116;2023-02-11T00:37:17;101864.13;;;-0.56;70.76
55576;BME280;41437;45.478;9.116;2023-02-11T00:40:19;101863.69;;;-0.61;72.19
55576;BME280;41437;45.478;9.116;2023-02-11T00:43:20;101865.25;;;-0.58;72.41
55576;BME280;41437;45.478;9.116;2023-02-11T00:46:22;101862.41;;;-0.57;72.54
55576;BME280;41437;45.478;9.116;2023-02-11T00:49:25;101865.22;;;-0.68;71.18
55576;BME280;41437;45.478;9.116;2023-02-11T00:52:27;101868.28;;;-0.92;70.76
55576;BME280;41437;45.478;9.116;2023-02-11T00:55:29;101875.47;;;-1.12;71.73
55576;BME280;41437;45.478;9.116;2023-02-11T00:58:30;101855.91;;;-1.25;75.24
55576;BME280;41437;45.478;9.116;2023-02-11T01:01:32;101860.16;;;-1.22;76.42
55576;BME280;41437;45.478;9.116;2023-02-11T01:04:36;101861.19;;;-1.44;74.89
55576;BME280;41437;45.478;9.116;2023-02-11T01:07:38;101861.56;;;-1.28;79.18
55576;BME280;41437;45.478;9.116;2023-02-11T01:10:40;101847.16;;;-1.08;77.67
55576;BME280;41437;45.478;9.116;2023-02-11T01:13:43;101849.47;;;-0.93;77.00
55576;BME280;41437;45.478;9.116;2023-02-11T01:16:46;101857.09;;;-0.78;77.26
55576;BME280;41437;45.478;9.116;2023-02-11T01:19:49;101856.50;;;-0.81;75.17
55576;BME280;41437;45.478;9.116;2023-02-11T01:22:50;101858.84;;;-0.97;75.17
55576;BME280;41437;45.478;9.116;2023-02-11T01:25:52;101861.34;;;-1.15;74.18
55576;BME280;41437;45.478;9.116;2023-02-11T01:28:56;101852.59;;;-1.29;74.30
55576;BME280;41437;45.478;9.116;2023-02-11T01:31:59;101847.41;;;-1.41;74.00
55576;BME280;41437;45.478;9.116;2023-02-11T01:35:03;101848.22;;;-1.50;75.20
55576;BME280;41437;45.478;9.116;2023-02-11T01:38:05;101846.06;;;-1.57;75.00
55576;BME280;41437;45.478;9.116;2023-02-11T01:41:09;101841.69;;;-1.69;79.94
55576;BME280;41437;45.478;9.116;2023-02-11T01:44:23;101836.13;;;-1.46;82.11
55576;BME280;41437;45.478;9.116;2023-02-11T01:47:25;101837.97;;;-1.26;80.75
55576;BME280;41437;45.478;9.116;2023-02-11T01:50:28;101838.84;;;-1.16;78.86
55576;BME280;41437;45.478;9.116;2023-02-11T01:53:31;101835.47;;;-1.08;76.79
55576;BME280;41437;45.478;9.116;2023-02-11T01:56:54;101824.34;;;-1.05;77.40
55576;BME280;41437;45.478;9.116;2023-02-11T02:00:17;101821.63;;;-1.45;75.80
55576;BME280;41437;45.478;9.116;2023-02-11T02:03:29;101823.94;;;-1.62;77.41
55576;BME280;41437;45.478;9.116;2023-02-11T02:06:39;101819.06;;;-1.68;79.48
55576;BME280;41437;45.478;9.116;2023-02-11T02:09:48;101814.47;;;-1.56;83.05
55576;BME280;41437;45.478;9.116;2023-02-11T02:12:53;101813.44;;;-1.34;82.87
55576;BME280;41437;45.478;9.116;2023-02-11T02:15:56;101806.66;;;-1.19;81.37
55576;BME280;41437;45.478;9.116;2023-02-11T02:19:15;101807.72;;;-1.01;81.01
55576;BME280;41437;45.478;9.116;2023-02-11T02:26:31;101797.91;;;-1.32;76.25
55576;BME280;41437;45.478;9.116;2023-02-11T02:30:02;101793.97;;;-2.00;79.25
55576;BME280;41437;45.478;9.116;2023-02-11T02:33:15;101795.41;;;-1.96;79.60
55576;BME280;41437;45.478;9.116;2023-02-11T02:36:22;101802.47;;;-2.26;82.14
55576;BME280;41437;45.478;9.116;2023-02-11T02:39:32;101790.41;;;-2.22;86.28
55576;BME280;41437;45.478;9.116;2023-02-11T02:42:37;101790.16;;;-1.98;84.34
55576;BME280;41437;45.478;9.116;2023-02-11T02:45:39;101787.81;;;-1.91;81.73
55576;BME280;41437;45.478;9.116;2023-02-11T02:48:48;101793.97;;;-2.00;81.29
55576;BME280;41437;45.478;9.116;2023-02-11T02:52:03;101792.50;;;-2.25;82.68
55576;BME280;41437;45.478;9.116;2023-02-11T02:55:23;101787.50;;;-2.30;84.01
55576;BME280;41437;45.478;9.116;2023-02-11T02:58:53;101789.78;;;-2.46;85.16
55576;BME280;41437;45.478;9.116;2023-02-11T03:02:05;101786.94;;;-2.13;86.58
55576;BME280;41437;45.478;9.116;2023-02-11T03:05:17;101778.03;;;-1.83;84.74
55576;BME280;41437;45.478;9.116;2023-02-11T03:08:24;101776.13;;;-1.61;83.16
55576;BME280;41437;45.478;9.116;2023-02-11T03:11:29;101781.81;;;-1.43;83.52
55576;BME280;41437;45.478;9.116;2023-02-11T03:14:34;101781.97;;;-1.35;81.45
55576;BME280;41437;45.478;9.116;2023-02-11T03:17:38;101775.41;;;-1.42;80.07
55576;BME280;41437;45.478;9.116;2023-02-11T03:20:45;101772.72;;;-1.33;80.03
55576;BME280;41437;45.478;9.116;2023-02-11T03:23:53;101776.19;;;-1.21;82.57
55576;BME280;41437;45.478;9.116;2023-02-11T03:26:58;101772.22;;;-1.17;82.97
55576;BME280;41437;45.478;9.116;2023-02-11T03:30:08;101775.66;;;-1.05;81.92
55576;BME280;41437;45.478;9.116;2023-02-11T03:33:18;101764.88;;;-0.95;82.02
55576;BME280;41437;45.478;9.116;2023-02-11T03:36:32;101749.03;;;-1.10;79.33
55576;BME280;41437;45.478;9.116;2023-02-11T03:39:40;101749.84;;;-1.29;78.84
55576;BME280;41437;45.478;9.116;2023-02-11T03:42:48;101745.91;;;-1.45;82.49
55576;BME280;41437;45.478;9.116;2023-02-11T03:45:52;101751.78;;;-1.40;82.92
55576;BME280;41437;45.478;9.116;2023-02-11T03:49:00;101744.22;;;-1.46;78.50
55576;BME280;41437;45.478;9.116;2023-02-11T03:52:08;101738.72;;;-1.66;80.29
55576;BME280;41437;45.478;9.116;2023-02-11T03:55:14;101737.25;;;-1.70;81.50
55576;BME280;41437;45.478;9.116;2023-02-11T03:58:17;101732.91;;;-1.61;83.12
55576;BME280;41437;45.478;9.116;2023-02-11T04:01:18;101730.53;;;-1.55;83.17
55576;BME280;41437;45.478;9.116;2023-02-11T04:04:20;101733.94;;;-1.53;83.01
55576;BME280;41437;45.478;9.116;2023-02-11T04:07:24;101731.94;;;-1.60;80.90
55576;BME280;41437;45.478;9.116;2023-02-11T04:10:26;101739.88;;;-1.59;81.72
55576;BME280;41437;45.478;9.116;2023-02-11T04:13:27;101741.88;;;-1.61;81.71
55576;BME280;41437;45.478;9.116;2023-02-11T04:16:29;101730.88;;;-1.69;83.98
55576;BME280;41437;45.478;9.116;2023-02-11T04:19:30;101733.03;;;-1.63;85.04
55576;BME280;41437;45.478;9.116;2023-02-11T04:22:34;101743.34;;;-1.57;84.33
55576;BME280;41437;45.478;9.116;2023-02-11T04:25:36;101744.94;;;-1.75;81.02
55576;BME280;41437;45.478;9.116;2023-02-11T04:28:37;101736.53;;;-2.03;82.21
55576;BME280;41437;45.478;9.116;2023-02-11T04:31:39;101732.13;;;-2.24;85.83
55576;BME280;41437;45.478;9.116;2023-02-11T04:34:41;101730.47;;;-2.16;86.97
55576;BME280;41437;45.478;9.116;2023-02-11T04:37:43;101733.81;;;-2.03;85.90
55576;BME280;41437;45.478;9.116;2023-02-11T04:40:46;101729.72;;;-1.97;85.00
55576;BME280;41437;45.478;9.116;2023-02-11T04:43:48;101720.81;;;-1.88;85.48
55576;BME280;41437;45.478;9.116;2023-02-11T04:46:49;101724.38;;;-1.87;83.70
55576;BME280;41437;45.478;9.116;2023-02-11T04:49:51;101727.03;;;-2.18;81.99
55576;BME280;41437;45.478;9.116;2023-02-11T04:52:54;101724.41;;;-2.50;85.39
55576;BME280;41437;45.478;9.116;2023-02-11T04:55:56;101710.47;;;-2.34;86.45
55576;BME280;41437;45.478;9.116;2023-02-11T04:58:58;101719.41;;;-2.13;86.42
55576;BME280;41437;45.478;9.116;2023-02-11T05:01:59;101716.81;;;-1.93;84.75
55576;BME280;41437;45.478;9.116;2023-02-11T05:05:01;101723.13;;;-1.83;85.51
55576;BME280;41437;45.478;9.116;2023-02-11T05:08:04;101723.25;;;-1.85;83.95
55576;BME280;41437;45.478;9.116;2023-02-11T05:11:07;101718.19;;;-1.78;85.51
55576;BME280;41437;45.478;9.116;2023-02-11T05:14:08;101724.91;;;-1.72;82.35
55576;BME280;41437;45.478;9.116;2023-02-11T05:17:10;101715.41;;;-1.88;82.81
55576;BME280;41437;45.478;9.116;2023-02-11T05:20:13;101716.56;;;-1.90;84.98
55576;BME280;41437;45.478;9.116;2023-02-11T05:23:15;101722.38;;;-1.95;84.59
55576;BME280;41437;45.478;9.116;2023-02-11T05:26:17;101718.31;;;-2.00;84.91
55576;BME280;41437;45.478;9.116;2023-02-11T05:29:19;101718.16;;;-2.09;84.67
55576;BME280;41437;45.478;9.116;2023-02-11T05:32:20;101716.63;;;-2.02;85.66
55576;BME280;41437;45.478;9.116;2023-02-11T05:35:22;101707.38;;;-2.09;85.20
55576;BME280;41437;45.478;9.116;2023-02-11T05:38:25;101708.03;;;-2.16;85.53
55576;BME280;41437;45.478;9.116;2023-02-11T05:41:27;101716.13;;;-2.16;85.90
55576;BME280;41437;45.478;9.116;2023-02-11T05:44:29;101709.41;;;-2.22;87.63
55576;BME280;41437;45.478;9.116;2023-02-11T05:47:32;101712.56;;;-2.17;87.28
55576;BME280;41437;45.478;9.116;2023-02-11T05:50:33;101711.72;;;-2.17;86.38
55576;BME280;41437;45.478;9.116;2023-02-11T05:53:36;101691.88;;;-2.07;83.46
55576;BME280;41437;45.478;9.116;2023-02-11T05:56:38;101705.81;;;-2.02;82.49
55576;BME280;41437;45.478;9.116;2023-02-11T05:59:39;101700.13;;;-2.08;84.20
55576;BME280;41437;45.478;9.116;2023-02-11T06:02:41;101698.91;;;-2.15;82.42
55576;BME280;41437;45.478;9.116;2023-02-11T06:05:43;101700.16;;;-2.19;83.78
55576;BME280;41437;45.478;9.116;2023-02-11T06:08:46;101692.34;;;-2.43;82.73
55576;BME280;41437;45.478;9.116;2023-02-11T06:11:48;101697.72;;;-2.64;82.66
55576;BME280;41437;45.478;9.116;2023-02-11T06:14:49;101691.06;;;-2.81;84.77
55576;BME280;41437;45.478;9.116;2023-02-11T06:17:51;101695.00;;;-2.85;83.71
55576;BME280;41437;45.478;9.116;2023-02-11T06:20:52;101705.59;;;-3.05;84.57
55576;BME280;41437;45.478;9.116;2023-02-11T06:23:55;101693.38;;;-3.20;85.39
55576;BME280;41437;45.478;9.116;2023-02-11T06:26:57;101686.28;;;-3.32;88.41
55576;BME280;41437;45.478;9.116;2023-02-11T06:29:58;101680.34;;;-3.04;92.48
55576;BME280;41437;45.478;9.116;2023-02-11T06:33:00;101682.44;;;-2.75;91.55
55576;BME280;41437;45.478;9.116;2023-02-11T06:36:02;101678.38;;;-2.69;87.92
55576;BME280;41437;45.478;9.116;2023-02-11T06:39:06;101677.00;;;-2.64;88.42
55576;BME280;41437;45.478;9.116;2023-02-11T06:42:08;101675.97;;;-2.31;90.57
55576;BME280;41437;45.478;9.116;2023-02-11T06:45:11;101675.72;;;-2.18;88.53
55576;BME280;41437;45.478;9.116;2023-02-11T06:48:13;101676.22;;;-2.13;87.71
55576;BME280;41437;45.478;9.116;2023-02-11T06:51:15;101687.22;;;-2.25;82.44
55576;BME280;41437;45.478;9.116;2023-02-11T06:54:18;101687.97;;;-2.76;83.60
55576;BME280;41437;45.478;9.116;2023-02-11T06:57:20;101692.44;;;-3.30;88.71
55576;BME280;41437;45.478;9.116;2023-02-11T07:00:21;101695.00;;;-3.40;88.43
55576;BME280;41437;45.478;9.116;2023-02-11T07:03:23;101689.91;;;-3.11;91.13
55576;BME280;41437;45.478;9.116;2023-02-11T07:06:26;101693.59;;;-2.80;89.47
55576;BME280;41437;45.478;9.116;2023-02-11T07:09:29;101695.94;;;-2.54;89.51
55576;BME280;41437;45.478;9.116;2023-02-11T07:12:31;101695.63;;;-2.40;89.39
55576;BME280;41437;45.478;9.116;2023-02-11T07:15:33;101692.31;;;-2.22;90.01
55576;BME280;41437;45.478;9.116;2023-02-11T07:18:35;101697.59;;;-2.00;90.21
55576;BME280;41437;45.478;9.116;2023-02-11T07:21:37;101687.94;;;-1.93;88.27
55576;BME280;41437;45.478;9.116;2023-02-11T07:24:40;101697.84;;;-1.82;88.42
55576;BME280;41437;45.478;9.116;2023-02-11T07:27:42;101702.13;;;-1.70;88.00
55576;BME280;41437;45.478;9.116;2023-02-11T07:30:43;101706.16;;;-1.64;83.28
55576;BME280;41437;45.478;9.116;2023-02-11T07:33:45;101707.53;;;-2.00;82.15
55576;BME280;41437;45.478;9.116;2023-02-11T07:36:46;101712.13;;;-2.22;83.92
55576;BME280;41437;45.478;9.116;2023-02-11T07:39:49;101721.06;;;-2.42;85.31
55576;BME280;41437;45.478;9.116;2023-02-11T07:42:54;101724.41;;;-2.50;86.13
55576;BME280;41437;45.478;9.116;2023-02-11T07:45:58;101712.28;;;-2.56;86.32
55576;BME280;41437;45.478;9.116;2023-02-11T07:48:59;101716.28;;;-2.50;90.59
55576;BME280;41437;45.478;9.116;2023-02-11T07:52:03;101708.91;;;-2.06;90.39
55576;BME280;41437;45.478;9.116;2023-02-11T07:55:06;101711.88;;;-1.58;89.47
55576;BME280;41437;45.478;9.116;2023-02-11T07:58:10;101712.81;;;-1.38;85.67
55576;BME280;41437;45.478;9.116;2023-02-11T08:01:14;101706.59;;;-1.09;86.09
55576;BME280;41437;45.478;9.116;2023-02-11T08:04:18;101716.91;;;-0.84;85.60
55576;BME280;41437;45.478;9.116;2023-02-11T08:07:20;101718.06;;;-0.67;83.34
55576;BME280;41437;45.478;9.116;2023-02-11T08:10:23;101724.63;;;-0.50;81.13
55576;BME280;41437;45.478;9.116;2023-02-11T08:13:25;101723.03;;;-0.23;81.15
55576;BME280;41437;45.478;9.116;2023-02-11T08:16:28;101731.41;;;-0.07;81.90
55576;BME280;41437;45.478;9.116;2023-02-11T08:19:30;101736.22;;;0.09;80.70
55576;BME280;41437;45.478;9.116;2023-02-11T08:22:34;101731.53;;;0.11;81.22
55576;BME280;41437;45.478;9.116;2023-02-11T08:25:37;101739.78;;;0.19;80.19
55576;BME280;41437;45.478;9.116;2023-02-11T08:28:41;101736.59;;;0.33;79.52
55576;BME280;41437;45.478;9.116;2023-02-11T08:31:45;101735.56;;;0.34;78.81
55576;BME280;41437;45.478;9.116;2023-02-11T08:34:49;101733.31;;;0.30;78.60
55576;BME280;41437;45.478;9.116;2023-02-11T08:37:51;101731.13;;;0.43;80.51
55576;BME280;41437;45.478;9.116;2023-02-11T08:40:54;101724.22;;;0.21;76.15
55576;BME280;41437;45.478;9.116;2023-02-11T08:43:56;101722.47;;;0.39;77.32
55576;BME280;41437;45.478;9.116;2023-02-11T08:46:57;101726.50;;;0.63;77.44
55576;BME280;41437;45.478;9.116;2023-02-11T08:49:59;101726.13;;;0.75;76.17
55576;BME280;41437;45.478;9.116;2023-02-11T08:53:00;101723.19;;;0.96;78.05
55576;BME280;41437;45.478;9.116;2023-02-11T08:56:04;101714.81;;;1.25;79.45
55576;BME280;41437;45.478;9.116;2023-02-11T08:59:08;101719.94;;;1.46;78.20
55576;BME280;41437;45.478;9.116;2023-02-11T09:02:12;101717.56;;;1.61;76.60
55576;BME280;41437;45.478;9.116;2023-02-11T09:05:14;101715.13;;;1.76;76.21
55576;BME280;41437;45.478;9.116;2023-02-11T09:08:15;101725.75;;;1.87;74.62
55576;BME280;41437;45.478;9.116;2023-02-11T09:11:20;101722.81;;;2.07;74.05
55576;BME280;41437;45.478;9.116;2023-02-11T09:14:23;101729.22;;;1.97;69.54
55576;BME280;41437;45.478;9.116;2023-02-11T09:17:24;101732.31;;;2.03;70.29
55576;BME280;41437;45.478;9.116;2023-02-11T09:20:27;101725.72;;;2.05;73.19
55576;BME280;41437;45.478;9.116;2023-02-11T09:23:28;101719.09;;;2.08;73.22
55576;BME280;41437;45.478;9.116;2023-02-11T09:26:33;101716.25;;;2.17;71.75
55576;BME280;41437;45.478;9.116;2023-02-11T09:29:35;101718.28;;;2.15;72.62
55576;BME280;41437;45.478;9.116;2023-02-11T09:32:36;101716.66;;;2.05;72.56
55576;BME280;41437;45.478;9.116;2023-02-11T09:35:38;101715.16;;;2.02;71.40
55576;BME280;41437;45.478;9.116;2023-02-11T09:38:40;101720.59;;;2.02;70.63
55576;BME280;41437;45.478;9.116;2023-02-11T09:41:54;101725.06;;;2.11;71.69
55576;BME280;41437;45.478;9.116;2023-02-11T09:45:00;101735.63;;;2.40;71.99
55576;BME280;41437;45.478;9.116;2023-02-11T09:48:04;101727.81;;;2.80;65.56
55576;BME280;41437;45.478;9.116;2023-02-11T09:51:18;101729.75;;;2.95;65.20
55576;BME280;41437;45.478;9.116;2023-02-11T09:54:26;101723.44;;;2.95;65.34
55576;BME280;41437;45.478;9.116;2023-02-11T09:57:32;101732.47;;;2.95;65.58
55576;BME280;41437;45.478;9.116;2023-02-11T10:00:38;101727.94;;;3.20;64.80
55576;BME280;41437;45.478;9.116;2023-02-11T10:03:52;101732.94;;;3.49;62.67
55576;BME280;41437;45.478;9.116;2023-02-11T10:07:05;101737.91;;;3.62;62.93
55576;BME280;41437;45.478;9.116;2023-02-11T10:10:12;101740.63;;;3.95;63.08
55576;BME280;41437;45.478;9.116;2023-02-11T10:13:31;101736.19;;;4.10;61.27
55576;BME280;41437;45.478;9.116;2023-02-11T10:16:44;101737.19;;;4.34;60.59
55576;BME280;41437;45.478;9.116;2023-02-11T10:20:00;101739.91;;;4.34;59.59
55576;BME280;41437;45.478;9.116;2023-02-11T10:23:09;101748.09;;;4.34;60.84
55576;BME280;41437;45.478;9.116;2023-02-11T10:26:15;101745.56;;;4.32;61.41
55576;BME280;41437;45.478;9.116;2023-02-11T10:29:26;101740.75;;;4.42;63.27
55576;BME280;41437;45.478;9.116;2023-02-11T10:32:38;101739.47;;;4.61;61.59
55576;BME280;41437;45.478;9.116;2023-02-11T10:35:42;101738.25;;;4.80;62.17
55576;BME280;41437;45.478;9.116;2023-02-11T10:38:44;101732.78;;;4.80;62.26
55576;BME280;41437;45.478;9.116;2023-02-11T10:41:49;101726.09;;;4.83;62.63
55576;BME280;41437;45.478;9.116;2023-02-11T10:44:57;101724.19;;;4.91;62.87
55576;BME280;41437;45.478;9.116;2023-02-11T10:48:00;101715.94;;;4.99;62.54
55576;BME280;41437;45.478;9.116;2023-02-11T10:51:07;101720.75;;;5.28;61.38
55576;BME280;41437;45.478;9.116;2023-02-11T10:54:11;101713.78;;;5.49;57.75
55576;BME280;41437;45.478;9.116;2023-02-11T10:57:18;101703.56;;;5.66;58.15
55576;BME280;41437;45.478;9.116;2023-02-11T11:00:34;101697.03;;;5.75;58.49
55576;BME280;41437;45.478;9.116;2023-02-11T11:03:39;101698.75;;;5.91;56.01
55576;BME280;41437;45.478;9.116;2023-02-11T11:06:47;101701.44;;;5.99;56.51
55576;BME280;41437;45.478;9.116;2023-02-11T11:09:51;101687.31;;;6.25;56.81
55576;BME280;41437;45.478;9.116;2023-02-11T11:12:54;101685.28;;;6.27;54.92
55576;BME280;41437;45.478;9.116;2023-02-11T11:16:20;101684.59;;;6.54;54.39
55576;BME280;41437;45.478;9.116;2023-02-11T11:19:23;101685.00;;;6.66;52.96
55576;BME280;41437;45.478;9.116;2023-02-11T11:22:25;101687.72;;;6.66;52.31
55576;BME280;41437;45.478;9.116;2023-02-11T11:25:28;101681.38;;;6.66;51.71
55576;BME280;41437;45.478;9.116;2023-02-11T11:28:33;101666.34;;;6.62;51.42
55576;BME280;41437;45.478;9.116;2023-02-11T11:31:48;101668.75;;;6.50;51.72
55576;BME280;41437;45.478;9.116;2023-02-11T11:34:52;101662.88;;;6.38;51.58
55576;BME280;41437;45.478;9.116;2023-02-11T11:37:58;101657.97;;;6.34;50.53
55576;BME280;41437;45.478;9.116;2023-02-11T11:41:20;101652.09;;;6.51;48.71
55576;BME280;41437;45.478;9.116;2023-02-11T11:44:28;101664.75;;;6.67;48.84
55576;BME280;41437;45.478;9.116;2023-02-11T11:47:35;101654.88;;;6.88;49.00
55576;BME280;41437;45.478;9.116;2023-02-11T11:50:44;101648.53;;;7.02;48.96
55576;BME280;41437;45.478;9.116;2023-02-11T11:53:52;101643.09;;;6.87;48.40
55576;BME280;41437;45.478;9.116;2023-02-11T11:57:00;101640.34;;;6.87;49.11
55576;BME280;41437;45.478;9.116;2023-02-11T12:00:05;101637.91;;;6.92;46.14
55576;BME280;41437;45.478;9.116;2023-02-11T12:03:37;101647.13;;;6.91;47.29
55576;BME280;41437;45.478;9.116;2023-02-11T12:06:55;101640.19;;;6.74;48.42
55576;BME280;41437;45.478;9.116;2023-02-11T12:10:20;101630.94;;;6.75;46.74
55576;BME280;41437;45.478;9.116;2023-02-11T12:13:37;101623.31;;;6.92;46.55
55576;BME280;41437;45.478;9.116;2023-02-11T12:16:49;101606.25;;;7.11;45.16
55576;BME280;41437;45.478;9.116;2023-02-11T12:20:20;101606.00;;;7.27;44.86
55576;BME280;41437;45.478;9.116;2023-02-11T12:23:44;101618.19;;;7.46;44.50
55576;BME280;41437;45.478;9.116;2023-02-11T12:26:55;101613.75;;;7.67;44.09
55576;BME280;41437;45.478;9.116;2023-02-11T12:30:05;101607.66;;;7.71;42.41
55576;BME280;41437;45.478;9.116;2023-02-11T12:33:15;101618.81;;;7.70;43.20
55576;BME280;41437;45.478;9.116;2023-02-11T12:36:28;101606.00;;;7.77;42.80
55576;BME280;41437;45.478;9.116;2023-02-11T12:39:42;101614.94;;;7.86;42.39
55576;BME280;41437;45.478;9.116;2023-02-11T12:42:53;101611.84;;;7.95;41.99
55576;BME280;41437;45.478;9.116;2023-02-11T12:46:33;101615.25;;;7.97;42.35
55576;BME280;41437;45.478;9.116;2023-02-11T12:49:47;101612.34;;;8.05;42.90
55576;BME280;41437;45.478;9.116;2023-02-11T12:53:34;101594.91;;;8.20;42.36
55576;BME280;41437;45.478;9.116;2023-02-11T12:56:45;101596.97;;;8.11;41.18
55576;BME280;41437;45.478;9.116;2023-02-11T12:59:54;101600.09;;;8.08;39.93
55576;BME280;41437;45.478;9.116;2023-02-11T13:03:03;101596.34;;;8.16;39.97
55576;BME280;41437;45.478;9.116;2023-02-11T13:06:08;101589.88;;;8.30;39.94
55576;BME280;41437;45.478;9.116;2023-02-11T13:09:17;101574.94;;;8.39;39.45
55576;BME280;41437;45.478;9.116;2023-02-11T13:12:22;101575.41;;;8.43;39.48
55576;BME280;41437;45.478;9.116;2023-02-11T13:15:47;101570.81;;;8.56;38.76
55576;BME280;41437;45.478;9.116;2023-02-11T13:18:51;101560.66;;;8.50;37.52
55576;BME280;41437;45.478;9.116;2023-02-11T13:22:04;101563.19;;;8.52;37.55
55576;BME280;41437;45.478;9.116;2023-02-11T13:25:18;101551.78;;;8.62;37.94
55576;BME280;41437;45.478;9.116;2023-02-11T13:28:31;101555.84;;;8.72;37.57
55576;BME280;41437;45.478;9.116;2023-02-11T13:31:37;101555.00;;;8.72;37.54
55576;BME280;41437;45.478;9.116;2023-02-11T13:34:55;101543.81;;;8.67;36.87
55576;BME280;41437;45.478;9.116;2023-02-11T13:37:58;101553.50;;;8.63;36.86
55576;BME280;41437;45.478;9.116;2023-02-11T13:41:03;101551.38;;;8.65;36.76
55576;BME280;41437;45.478;9.116;2023-02-11T13:44:18;101543.59;;;8.75;36.51
55576;BME280;41437;45.478;9.116;2023-02-11T13:47:27;101536.22;;;8.82;36.91
55576;BME280;41437;45.478;9.116;2023-02-11T13:50:36;101529.91;;;8.88;36.96
55576;BME280;41437;45.478;9.116;2023-02-11T13:53:47;101526.47;;;8.73;37.36
55576;BME280;41437;45.478;9.116;2023-02-11T13:57:29;101537.06;;;8.82;35.62
55576;BME280;41437;45.478;9.116;2023-02-11T14:00:47;101538.34;;;8.80;35.44
55576;BME280;41437;45.478;9.116;2023-02-11T14:04:18;101532.41;;;8.83;35.33
55576;BME280;41437;45.478;9.116;2023-02-11T14:07:37;101523.97;;;8.91;34.54
55576;BME280;41437;45.478;9.116;2023-02-11T14:10:58;101520.59;;;8.89;34.21
55576;BME280;41437;45.478;9.116;2023-02-11T14:14:13;101517.38;;;8.79;33.30
55576;BME280;41437;45.478;9.116;2023-02-11T14:17:17;101514.25;;;8.95;33.35
55576;BME280;41437;45.478;9.116;2023-02-11T14:20:35;101505.81;;;9.03;33.80
55576;BME280;41437;45.478;9.116;2023-02-11T14:23:39;101508.75;;;9.09;34.11
55576;BME280;41437;45.478;9.116;2023-02-11T14:26:46;101501.16;;;8.97;33.04
55576;BME280;41437;45.478;9.116;2023-02-11T14:30:07;101503.69;;;8.99;33.11
55576;BME280;41437;45.478;9.116;2023-02-11T14:36:46;101504.53;;;8.93;33.18
55576;BME280;41437;45.478;9.116;2023-02-11T14:40:00;101496.03;;;8.88;33.36
55576;BME280;41437;45.478;9.116;2023-02-11T14:43:12;101499.88;;;8.93;34.21
55576;BME280;41437;45.478;9.116;2023-02-11T14:46:21;101496.28;;;8.79;34.31
55576;BME280;41437;45.478;9.116;2023-02-11T14:49:26;101496.91;;;8.88;33.28
55576;BME280;41437;45.478;9.116;2023-02-11T14:52:30;101494.16;;;8.88;33.68
55576;BME280;41437;45.478;9.116;2023-02-11T14:55:35;101484.84;;;8.82;33.69
55576;BME280;41437;45.478;9.116;2023-02-11T14:58:45;101488.03;;;8.79;34.16
55576;BME280;41437;45.478;9.116;2023-02-11T15:01:51;101494.38;;;8.93;32.80
55576;BME280;41437;45.478;9.116;2023-02-11T15:04:53;101488.88;;;9.00;33.00
55576;BME280;41437;45.478;9.116;2023-02-11T15:07:57;101480.81;;;8.92;33.66
55576;BME280;41437;45.478;9.116;2023-02-11T15:11:01;101484.66;;;8.97;31.67
55576;BME280;41437;45.478;9.116;2023-02-11T15:14:08;101488.88;;;9.00;32.77
55576;BME280;41437;45.478;9.116;2023-02-11T15:17:15;101497.16;;;9.06;31.42
55576;BME280;41437;45.478;9.116;2023-02-11T15:20:21;101498.81;;;8.94;32.56
55576;BME280;41437;45.478;9.116;2023-02-11T15:23:26;101494.56;;;8.78;32.55
55576;BME280;41437;45.478;9.116;2023-02-11T15:26:29;101485.44;;;8.65;33.21
55576;BME280;41437;45.478;9.116;2023-02-11T15:29:35;101480.13;;;8.56;34.03
55576;BME280;41437;45.478;9.116;2023-02-11T15:32:42;101472.53;;;8.59;33.84
55576;BME280;41437;45.478;9.116;2023-02-11T15:35:44;101476.53;;;8.56;34.59
55576;BME280;41437;45.478;9.116;2023-02-11T15:39:17;101471.84;;;8.43;34.82
55576;BME280;41437;45.478;9.116;2023-02-11T15:42:22;101470.63;;;8.66;34.33
55576;BME280;41437;45.478;9.116;2023-02-11T15:45:27;101465.34;;;8.57;35.01
55576;BME280;41437;45.478;9.116;2023-02-11T15:48:34;101461.53;;;8.52;35.47
55576;BME280;41437;45.478;9.116;2023-02-11T15:51:37;101454.50;;;8.36;36.15
55576;BME280;41437;45.478;9.116;2023-02-11T15:54:47;101443.88;;;8.26;36.17
55576;BME280;41437;45.478;9.116;2023-02-11T15:57:52;101447.25;;;8.22;36.50
55576;BME280;41437;45.478;9.116;2023-02-11T16:00:55;101446.16;;;8.10;36.33
55576;BME280;41437;45.478;9.116;2023-02-11T16:03:59;101440.66;;;8.03;36.92
55576;BME280;41437;45.478;9.116;2023-02-11T16:07:01;101445.06;;;8.04;37.39
55576;BME280;41437;45.478;9.116;2023-02-11T16:10:15;101433.59;;;7.80;38.19
55576;BME280;41437;45.478;9.116;2023-02-11T16:13:18;101446.31;;;7.95;38.06
55576;BME280;41437;45.478;9.116;2023-02-11T16:16:21;101434.44;;;7.81;38.27
55576;BME280;41437;45.478;9.116;2023-02-11T16:19:25;101424.97;;;7.84;38.17
55576;BME280;41437;45.478;9.116;2023-02-11T16:22:28;101424.44;;;7.67;38.70
55576;BME280;41437;45.478;9.116;2023-02-11T16:25:36;101423.47;;;7.46;39.42
55576;BME280;41437;45.478;9.116;2023-02-11T16:28:38;101424.09;;;7.42;39.32